Time;durP1;ratioP1;P1;durP2;ratioP2;P2;SDS_P1;SDS_P2;PMS_P1;PMS_P2;Temp;Humidity;BMP_temperature;BMP_pressure;BME280_temperature;BME280_humidity;BME280_pressure;Samples;Min_cycle;Max_cycle;Signal;HPM_P1;HPM_P2
2023/10/26 00:00:35;;;;;;;;;6.33;4.00;;;;;14.74;100.00;99229.59;4967123;28;45732;-73
2023/10/26 00:03:00;;;;;;;;;8.00;4.00;;;;;14.77;100.00;99240.09;4957282;28;46803;-71
2023/10/26 00:05:26;;;;;;;;;7.33;5.00;;;;;14.74;100.00;99243.41;4955539;28;45533;-74
2023/10/26 00:07:51;;;;;;;;;4.67;4.00;;;;;14.46;100.00;99227.03;4961084;28;45581;-72
2023/10/26 00:10:17;;;;;;;;;6.33;6.33;;;;;14.45;100.00;99222.63;4973519;28;45849;-72
2023/10/26 00:12:43;;;;;;;;;6.00;5.00;;;;;14.39;100.00;99220.94;4974038;28;45695;-77
2023/10/26 00:15:09;;;;;;;;;5.67;5.33;;;;;14.35;100.00;99214.31;4956762;28;45550;-77
2023/10/26 00:17:37;;;;;;;;;3.33;3.00;;;;;14.41;100.00;99217.91;4963518;28;46246;-77
2023/10/26 00:20:04;;;;;;;;;5.67;5.67;;;;;14.44;100.00;99218.19;4949998;28;46262;-77
2023/10/26 00:22:29;;;;;;;;;4.00;4.00;;;;;14.46;100.00;99202.22;4973057;28;45646;-76
2023/10/26 00:24:54;;;;;;;;;7.00;3.00;;;;;14.48;100.00;99201.94;4953530;28;45854;-77
2023/10/26 00:27:20;;;;;;;;;7.67;6.33;;;;;14.58;100.00;99214.91;4972952;28;46234;-77
2023/10/26 00:29:45;;;;;;;;;5.33;4.33;;;;;14.65;100.00;99207.22;4953879;28;45884;-75
2023/10/26 00:32:11;;;;;;;;;4.67;4.67;;;;;14.68;100.00;99197.59;4958677;28;45945;-76
2023/10/26 00:34:36;;;;;;;;;6.00;4.00;;;;;14.62;100.00;99182.94;4962359;28;45838;-76
2023/10/26 00:37:02;;;;;;;;;5.67;5.67;;;;;14.53;100.00;99177.09;4972502;28;46513;-71
2023/10/26 00:39:28;;;;;;;;;5.33;4.33;;;;;14.72;100.00;99193.19;4973802;28;46032;-71
2023/10/26 00:41:54;;;;;;;;;7.00;5.33;;;;;14.61;100.00;99173.84;4975731;28;45572;-71
2023/10/26 00:44:21;;;;;;;;;3.00;3.00;;;;;14.72;100.00;99184.91;4962157;28;45423;-72
2023/10/26 00:46:48;;;;;;;;;6.33;5.00;;;;;14.77;100.00;99184.91;4971338;28;45460;-77
2023/10/26 00:49:15;;;;;;;;;3.00;3.00;;;;;14.77;100.00;99187.66;4969415;28;45641;-78
2023/10/26 00:51:51;;;;;;;;;4.33;4.33;;;;;14.74;100.00;99182.69;4966093;28;45500;-79
2023/10/26 00:54:19;;;;;;;;;2.33;2.33;;;;;14.76;100.00;99184.06;4955257;28;46135;-78
2023/10/26 00:56:47;;;;;;;;;3.33;3.33;;;;;14.78;100.00;99181.84;4977260;28;46237;-73
2023/10/26 00:59:14;;;;;;;;;4.33;4.33;;;;;14.86;100.00;99185.19;4973373;28;46525;-71
2023/10/26 01:01:42;;;;;;;;;2.00;0.00;;;;;14.83;100.00;99170.00;4973652;28;45954;-72
2023/10/26 01:04:07;;;;;;;;;2.67;2.67;;;;;14.82;100.00;99171.13;4974893;28;45815;-76
2023/10/26 01:06:33;;;;;;;;;4.33;3.00;;;;;14.86;100.00;99174.97;4954730;28;48361;-71
2023/10/26 01:08:58;;;;;;;;;5.00;2.67;;;;;14.77;100.00;99157.28;4971500;28;46045;-71
2023/10/26 01:11:24;;;;;;;;;4.00;3.00;;;;;14.79;100.00;99161.44;4979429;28;45782;-77
2023/10/26 01:13:50;;;;;;;;;7.00;3.33;;;;;14.68;100.00;99150.69;4980749;28;46553;-76
2023/10/26 01:16:16;;;;;;;;;5.00;3.33;;;;;14.75;100.00;99168.63;4978391;28;46068;-71
2023/10/26 01:18:41;;;;;;;;;6.00;3.33;;;;;14.76;100.00;99169.44;4975115;28;45718;-71
2023/10/26 01:21:09;;;;;;;;;4.33;4.33;;;;;14.76;100.00;99180.47;4969727;28;45896;-69
2023/10/26 01:23:34;;;;;;;;;3.00;3.00;;;;;14.77;100.00;99165.56;4954810;28;46987;-70
2023/10/26 01:26:00;;;;;;;;;3.67;3.67;;;;;14.77;100.00;99160.88;4955526;28;46832;-71
2023/10/26 01:28:25;;;;;;;;;4.33;4.33;;;;;14.81;100.00;99166.69;4973022;28;46290;-76
2023/10/26 01:30:52;;;;;;;;;7.67;5.00;;;;;14.80;100.00;99154.81;4963830;28;45813;-76
2023/10/26 01:33:18;;;;;;;;;3.67;3.00;;;;;14.86;100.00;99160.34;4970829;28;45757;-77
2023/10/26 01:35:45;;;;;;;;;4.67;4.00;;;;;14.79;100.00;99153.16;4974288;28;46102;-76
2023/10/26 01:38:11;;;;;;;;;5.00;4.00;;;;;14.70;100.00;99149.31;4966669;28;45321;-77
2023/10/26 01:40:37;;;;;;;;;6.33;5.00;;;;;14.69;100.00;99147.63;4959876;28;45732;-75
2023/10/26 01:43:02;;;;;;;;;4.33;4.33;;;;;14.67;100.00;99155.38;4973194;28;45872;-75
2023/10/26 01:45:28;;;;;;;;;3.00;3.00;;;;;14.59;100.00;99153.94;4974686;28;45643;-74
2023/10/26 01:47:54;;;;;;;;;6.00;4.00;;;;;14.50;100.00;99136.28;4972139;28;45316;-76
2023/10/26 01:50:20;;;;;;;;;4.00;3.00;;;;;14.52;100.00;99142.38;4973431;28;45578;-76
2023/10/26 01:52:46;;;;;;;;;4.00;4.00;;;;;14.49;100.00;99142.91;4973181;28;45506;-76
2023/10/26 01:55:11;;;;;;;;;6.33;5.00;;;;;14.46;100.00;99148.97;4972263;28;45538;-76
2023/10/26 01:57:37;;;;;;;;;5.00;5.00;;;;;14.44;100.00;99140.13;5003111;23;44888;-86
2023/10/26 02:00:03;;;;;;;;;4.67;4.67;;;;;14.27;100.00;99113.66;4988645;28;44957;-85
2023/10/26 02:02:28;;;;;;;;;5.67;5.67;;;;;14.23;100.00;99115.28;4978433;28;45572;-85
2023/10/26 02:04:57;;;;;;;;;6.00;4.33;;;;;14.33;100.00;99132.97;5000203;28;46844;-84
2023/10/26 02:07:22;;;;;;;;;5.00;5.00;;;;;14.27;100.00;99112.81;4972794;28;45650;-84
2023/10/26 02:09:47;;;;;;;;;6.67;6.67;;;;;14.33;100.00;99119.19;4974786;28;45844;-85
2023/10/26 02:12:13;;;;;;;;;8.00;8.00;;;;;14.27;100.00;99108.13;4995533;28;44704;-85
2023/10/26 02:14:38;;;;;;;;;9.00;6.33;;;;;14.32;100.00;99112.00;4985190;28;45222;-84
2023/10/26 02:17:05;;;;;;;;;5.00;5.00;;;;;14.19;100.00;99091.28;4996418;28;45484;-86
2023/10/26 02:19:30;;;;;;;;;9.33;6.33;;;;;14.20;100.00;99092.97;4998134;28;45854;-85
2023/10/26 02:21:57;;;;;;;;;6.67;4.00;;;;;14.18;100.00;99079.44;4993345;28;44753;-86
2023/10/26 02:24:23;;;;;;;;;7.67;5.67;;;;;14.19;100.00;99072.84;4995627;28;46674;-86
2023/10/26 02:26:48;;;;;;;;;6.33;4.33;;;;;14.25;100.00;99081.91;4970635;28;44776;-86
2023/10/26 02:29:14;;;;;;;;;8.00;5.00;;;;;14.20;100.00;99080.00;4996296;28;44929;-86
2023/10/26 02:31:39;;;;;;;;;6.00;6.00;;;;;14.06;100.00;99056.84;4996881;28;45668;-86
2023/10/26 02:34:05;;;;;;;;;6.67;5.00;;;;;14.24;100.00;99081.09;4979805;28;47498;-85
2023/10/26 02:36:30;;;;;;;;;5.00;4.00;;;;;14.23;100.00;99073.94;4995202;28;45397;-84
2023/10/26 02:38:56;;;;;;;;;7.33;5.00;;;;;14.32;100.00;99087.19;4977004;28;45206;-85
2023/10/26 02:41:21;;;;;;;;;5.00;5.00;;;;;14.27;100.00;99074.22;4984175;28;45907;-84
2023/10/26 02:43:47;;;;;;;;;4.00;4.00;;;;;14.18;100.00;99051.88;4975488;28;45170;-84
2023/10/26 02:46:13;;;;;;;;;5.67;5.67;;;;;14.38;100.00;99073.09;4974843;28;45694;-85
2023/10/26 02:48:39;;;;;;;;;5.00;5.00;;;;;14.23;100.00;99056.56;4988566;28;44950;-85
2023/10/26 02:51:04;;;;;;;;;5.33;4.33;;;;;14.10;100.00;99038.63;4991436;28;44759;-84
2023/10/26 02:53:30;;;;;;;;;7.33;6.67;;;;;14.29;100.00;99059.03;4972731;28;47427;-84
2023/10/26 02:55:55;;;;;;;;;8.67;5.67;;;;;14.33;100.00;99064.03;4981077;28;46162;-84
2023/10/26 02:58:21;;;;;;;;;4.33;4.33;;;;;14.40;100.00;99061.81;4954069;28;45497;-81
2023/10/26 03:00:46;;;;;;;;;7.33;6.33;;;;;14.32;100.00;99038.38;4971840;28;46356;-85
2023/10/26 03:03:38;;;;;;;;;5.67;5.67;;;;;14.40;100.00;99040.59;4963584;28;47802;-80
2023/10/26 03:06:04;;;;;;;;;7.00;6.67;;;;;14.63;100.00;99027.34;4971829;28;45512;-81
2023/10/26 03:08:29;;;;;;;;;4.33;4.33;;;;;14.25;100.00;98985.41;4958259;28;45702;-82
2023/10/26 03:15:09;;;;;;;;;5.00;5.00;;;;;14.20;100.00;98997.28;4930522;28;45807;-86
2023/10/26 03:21:22;;;;;;;;;5.67;5.67;;;;;14.33;100.00;99012.44;4976093;28;45816;-90
2023/10/26 03:23:54;;;;;;;;;6.67;5.00;;;;;14.19;100.00;99003.91;4974273;28;46064;-87
2023/10/26 03:41:06;;;;;;;;;8.00;7.33;;;;;14.42;100.00;98974.13;4761433;29;45933;-86
2023/10/26 03:48:05;;;;;;;;;;;;;;;;;;;;;
2023/10/26 03:58:40;;;;;;;;;5.33;4.00;;;;;14.52;100.00;98974.09;4866987;28;45711;-86
2023/10/26 04:01:06;;;;;;;;;5.67;4.67;;;;;14.64;100.00;98980.16;4877720;29;45616;-86
2023/10/26 04:03:32;;;;;;;;;7.33;5.33;;;;;14.28;100.00;98905.75;4892142;29;45742;-85
2023/10/26 04:05:58;;;;;;;;;4.33;4.33;;;;;14.68;100.00;98963.06;4920034;28;47060;-85
2023/10/26 04:08:24;;;;;;;;;3.67;3.67;;;;;14.39;100.00;98931.34;4944280;28;45493;-84
2023/10/26 04:10:50;;;;;;;;;5.00;5.00;;;;;14.25;100.00;98914.56;4969378;28;45389;-84
2023/10/26 04:13:16;;;;;;;;;3.00;3.00;;;;;14.59;100.00;98933.22;4969011;28;45523;-84
2023/10/26 04:15:51;;;;;;;;;3.67;3.67;;;;;14.43;100.00;98912.31;4974289;28;46057;-87
2023/10/26 04:18:17;;;;;;;;;7.33;6.33;;;;;14.88;100.00;98979.56;4956016;28;45447;-85
2023/10/26 04:20:43;;;;;;;;;5.33;4.67;;;;;14.76;100.00;98944.00;4956626;28;45843;-85
2023/10/26 04:23:47;;;;;;;;;8.33;6.67;;;;;14.59;100.00;98922.19;4956346;28;45531;-85
2023/10/26 04:26:12;;;;;;;;;5.00;3.67;;;;;14.82;100.00;98983.44;4976551;28;45436;-84
2023/10/26 04:28:43;;;;;;;;;5.00;5.00;;;;;14.59;100.00;98930.47;4972668;28;46531;-84
2023/10/26 04:31:10;;;;;;;;;10.33;8.67;;;;;14.68;100.00;98929.94;4974964;28;45505;-85
2023/10/26 04:34:11;;;;;;;;;5.33;5.00;;;;;14.70;100.00;98950.63;4991835;28;45920;-90
2023/10/26 04:36:48;;;;;;;;;5.67;4.00;;;;;14.81;100.00;98945.91;4972115;28;47218;-90
2023/10/26 04:39:22;;;;;;;;;5.00;5.00;;;;;14.93;100.00;98957.44;4999556;28;44808;-90
2023/10/26 04:41:52;;;;;;;;;8.67;7.33;;;;;14.91;100.00;98945.03;4960639;28;45519;-89
2023/10/26 04:47:40;;;;;;;;;8.33;5.00;;;;;14.93;100.00;98910.53;4986460;28;46181;-82
2023/10/26 04:50:06;;;;;;;;;5.00;5.00;;;;;15.12;100.00;98929.19;4954467;28;44807;-86
2023/10/26 04:52:36;;;;;;;;;6.67;4.33;;;;;15.16;100.00;98936.66;4983185;28;45509;-88
2023/10/26 04:55:02;;;;;;;;;4.67;4.00;;;;;15.06;100.00;98908.25;4966770;28;46173;-87
2023/10/26 04:57:27;;;;;;;;;6.33;5.00;;;;;15.05;100.00;98901.09;4965579;28;47485;-86
2023/10/26 04:59:53;;;;;;;;;8.00;8.00;;;;;15.21;100.00;98933.03;4977096;28;45841;-86
2023/10/26 05:03:04;;;;;;;;;4.00;4.00;;;;;14.82;100.00;98870.28;4965471;28;45390;-90
2023/10/26 05:05:30;;;;;;;;;4.67;4.00;;;;;15.04;100.00;98897.47;4989889;28;45694;-83
2023/10/26 05:07:56;;;;;;;;;5.33;5.00;;;;;15.33;100.00;98922.47;4962522;28;46629;-88
2023/10/26 05:10:28;;;;;;;;;5.00;4.00;;;;;15.42;100.00;98922.69;5001543;28;45077;-82
2023/10/26 05:12:54;;;;;;;;;4.00;4.00;;;;;15.45;100.00;98927.63;4973437;28;45744;-86
2023/10/26 05:15:20;;;;;;;;;6.67;5.00;;;;;15.26;100.00;98886.03;4962101;28;45710;-89
2023/10/26 05:17:46;;;;;;;;;4.33;3.67;;;;;15.38;100.00;98898.69;4975203;28;45552;-81
2023/10/26 05:20:13;;;;;;;;;4.33;3.67;;;;;15.25;100.00;98867.81;4951921;28;45648;-83
2023/10/26 05:22:39;;;;;;;;;6.00;4.00;;;;;15.18;100.00;98856.28;4956758;28;45785;-81
2023/10/26 05:25:05;;;;;;;;;3.00;3.00;;;;;15.32;100.00;98862.81;4962660;28;45404;-82
2023/10/26 05:27:32;;;;;;;;;3.67;3.67;;;;;15.28;100.00;98850.66;4950256;28;46418;-83
2023/10/26 05:29:58;;;;;;;;;4.67;4.00;;;;;15.40;100.00;98864.13;4955469;28;45883;-82
2023/10/26 05:32:24;;;;;;;;;4.00;4.00;;;;;15.29;100.00;98848.75;4976431;28;45461;-83
2023/10/26 05:34:49;;;;;;;;;6.00;6.00;;;;;15.66;100.00;98895.16;4973751;28;45801;-81
2023/10/26 05:37:17;;;;;;;;;5.00;5.00;;;;;15.43;100.00;98846.16;4986369;28;46661;-87
2023/10/26 05:39:44;;;;;;;;;6.67;4.00;;;;;15.72;100.00;98887.66;4965170;28;45889;-86
2023/10/26 05:42:13;;;;;;;;;6.00;4.00;;;;;15.72;100.00;98887.66;4974055;28;45489;-85
2023/10/26 05:45:08;;;;;;;;;7.33;6.00;;;;;15.85;100.00;98897.25;4959096;28;45662;-85
2023/10/26 05:47:33;;;;;;;;;6.33;4.33;;;;;15.63;100.00;98851.53;4960669;28;47004;-87
2023/10/26 05:50:00;;;;;;;;;5.00;4.67;;;;;15.90;100.00;98902.75;4977626;28;45633;-86
2023/10/26 05:52:26;;;;;;;;;5.67;5.67;;;;;15.67;100.00;98852.59;4975025;28;45385;-88
2023/10/26 05:54:54;;;;;;;;;4.33;3.67;;;;;15.87;100.00;98883.97;4960779;28;45877;-88
2023/10/26 05:57:19;;;;;;;;;1.00;1.00;;;;;15.83;100.00;98894.78;4956113;28;46927;-82
2023/10/26 05:59:48;;;;;;;;;2.00;2.00;;;;;15.91;100.00;98918.19;4962338;28;45372;-82
2023/10/26 06:02:16;;;;;;;;;1.00;1.00;;;;;15.80;100.00;98903.66;4959442;28;45897;-82
2023/10/26 06:04:45;;;;;;;;;0.67;0.67;;;;;15.69;100.00;98886.28;4949845;28;46745;-81
2023/10/26 06:07:22;;;;;;;;;1.00;1.00;;;;;15.94;100.00;98931.44;4969464;28;46323;-82
2023/10/26 06:09:49;;;;;;;;;2.00;1.00;;;;;15.55;100.00;98857.66;4967402;28;45210;-82
2023/10/26 06:12:27;;;;;;;;;;;;;;;;;;;;;
2023/10/26 06:14:53;;;;;;;;;0.00;0.00;;;;;15.79;100.00;98909.47;4977451;28;74333;-87
2023/10/26 06:21:02;;;;;;;;;1.00;1.00;;;;;16.05;100.00;98951.56;4925021;28;46082;-90
2023/10/26 06:23:28;;;;;;;;;1.67;0.67;;;;;16.05;100.00;98948.78;4935354;28;45244;-84
2023/10/26 06:26:03;;;;;;;;;0.33;0.33;;;;;15.64;100.00;98883.59;4944355;28;45888;-86
2023/10/26 06:28:30;;;;;;;;;2.00;2.00;;;;;15.82;100.00;98915.25;4979272;28;45387;-88
2023/10/26 06:30:56;;;;;;;;;1.33;0.00;;;;;16.08;100.00;98955.66;4951412;28;45884;-82
2023/10/26 06:33:25;;;;;;;;;6.00;2.00;;;;;15.83;100.00;98911.34;4986769;28;45929;-82
2023/10/26 06:35:53;;;;;;;;;3.33;2.33;;;;;16.04;100.00;98950.72;4969226;28;45569;-82
2023/10/26 06:38:26;;;;;;;;;2.67;1.00;;;;;15.94;100.00;98952.75;4970137;28;45466;-82
2023/10/26 06:40:59;;;;;;;;;1.00;0.67;;;;;15.98;100.00;98976.75;4987506;28;46007;-85
2023/10/26 06:43:55;;;;;;;;;;;;;;;;;;;;;
2023/10/26 06:46:36;;;;;;;;;;;;;;;;;;;;;
2023/10/26 06:49:14;;;;;;;;;4.00;1.67;;;;;15.75;100.00;98936.00;4940228;28;74825;-83
2023/10/26 06:51:41;;;;;;;;;1.00;1.00;;;;;15.70;100.00;98926.66;4945248;28;45604;-82
2023/10/26 06:54:07;;;;;;;;;1.67;1.33;;;;;15.70;100.00;98937.69;4967164;28;45873;-86
2023/10/26 06:56:36;;;;;;;;;1.00;1.00;;;;;15.89;100.00;98959.13;4961966;28;46260;-87
2023/10/26 06:59:02;;;;;;;;;4.00;1.00;;;;;15.99;100.00;98978.41;4969042;28;46454;-88
2023/10/26 07:01:29;;;;;;;;;2.00;2.00;;;;;16.11;100.00;99002.09;4993514;28;45296;-88
2023/10/26 07:03:54;;;;;;;;;1.67;0.67;;;;;15.97;100.00;98980.66;4984108;28;45987;-86
2023/10/26 07:06:25;;;;;;;;;3.67;1.00;;;;;16.04;100.00;98988.63;4954554;28;45915;-87
2023/10/26 07:09:15;;;;;;;;;5.33;3.00;;;;;16.02;100.00;98963.19;4971374;28;46944;-90
2023/10/26 07:12:05;;;;;;;;;1.67;1.00;;;;;16.16;100.00;98985.47;4976896;28;44955;-89
2023/10/26 07:15:17;;;;;;;;;;;;;;;;;;;;;
2023/10/26 07:21:55;;;;;;;;;3.00;2.67;;;;;16.44;100.00;99036.41;4881781;29;45839;-87
2023/10/26 07:25:13;;;;;;;;;6.00;4.00;;;;;16.45;100.00;99048.31;4870877;29;45647;-92
2023/10/26 07:31:22;;;;;;;;;4.00;3.00;;;;;16.46;100.00;99053.53;4858697;29;45555;-89
2023/10/26 07:40:32;;;;;;;;;5.00;2.00;;;;;16.52;100.00;99054.34;4934179;23;45111;-73
2023/10/26 07:42:58;;;;;;;;;3.33;2.67;;;;;16.46;100.00;99045.25;5007704;28;45727;-72
2023/10/26 07:45:25;;;;;;;;;4.33;4.00;;;;;16.61;100.00;99063.66;5010233;28;45773;-73
2023/10/26 07:47:51;;;;;;;;;2.00;2.00;;;;;16.71;100.00;99060.00;5003606;28;45751;-72
2023/10/26 07:50:19;;;;;;;;;3.33;2.00;;;;;16.67;100.00;99061.69;5006839;28;45659;-72
2023/10/26 07:53:00;;;;;;;;;4.67;2.67;;;;;16.62;100.00;99070.84;5014507;28;45826;-72
2023/10/26 07:55:25;;;;;;;;;5.67;3.00;;;;;16.75;100.00;99084.03;5002687;28;45902;-71
2023/10/26 07:57:51;;;;;;;;;3.33;2.00;;;;;16.74;100.00;99093.44;5007016;28;45840;-72
2023/10/26 08:00:16;;;;;;;;;4.67;2.67;;;;;16.71;100.00;99074.63;5009300;28;45513;-70
2023/10/26 08:02:42;;;;;;;;;3.00;1.00;;;;;16.64;100.00;99068.59;5004619;28;46067;-72
2023/10/26 08:05:09;;;;;;;;;1.67;1.00;;;;;16.55;100.00;99062.06;4982766;28;48234;-69
2023/10/26 08:07:36;;;;;;;;;4.33;4.00;;;;;16.65;100.00;99077.75;5009671;28;45751;-69
2023/10/26 08:10:01;;;;;;;;;4.67;2.00;;;;;16.68;100.00;99083.53;5009292;28;45625;-70
2023/10/26 08:12:30;;;;;;;;;9.00;4.00;;;;;16.81;100.00;99092.28;4987667;28;45971;-69
2023/10/26 08:14:57;;;;;;;;;7.67;4.67;;;;;16.82;100.00;99085.63;5006680;28;47010;-70
2023/10/26 08:17:25;;;;;;;;;5.00;2.33;;;;;16.62;100.00;99094.91;5007365;28;45823;-73
2023/10/26 08:19:53;;;;;;;;;2.67;2.00;;;;;16.72;100.00;99117.81;5009953;28;45896;-71
2023/10/26 08:22:20;;;;;;;;;3.67;3.33;;;;;16.84;100.00;99135.97;5009841;28;45981;-72
2023/10/26 08:24:46;;;;;;;;;5.67;4.00;;;;;17.00;100.00;99131.19;5012026;28;46567;-70
2023/10/26 08:27:11;;;;;;;;;7.67;4.00;;;;;17.04;100.00;99118.41;4999117;28;46392;-71
2023/10/26 08:29:37;;;;;;;;;3.00;2.00;;;;;17.14;100.00;99118.31;5005056;28;45873;-72
2023/10/26 08:32:03;;;;;;;;;9.67;7.33;;;;;17.21;100.00;99126.25;5012630;28;45308;-72
2023/10/26 08:34:29;;;;;;;;;2.33;2.33;;;;;17.33;100.00;99112.00;5010175;28;45736;-73
2023/10/26 08:36:54;;;;;;;;;9.33;4.33;;;;;17.42;100.00;99115.78;5011824;28;45677;-71
2023/10/26 08:39:20;;;;;;;;;4.00;3.33;;;;;17.44;100.00;99125.47;5005316;28;45729;-71
2023/10/26 08:41:57;;;;;;;;;8.67;4.00;;;;;17.46;100.00;99114.06;5004415;28;45604;-73
2023/10/26 08:44:25;;;;;;;;;3.33;2.00;;;;;17.54;100.00;99107.88;5011985;28;45984;-72
2023/10/26 08:46:57;;;;;;;;;7.33;4.00;;;;;17.41;100.00;99092.78;5008601;28;45607;-71
2023/10/26 08:49:27;;;;;;;;;5.33;2.67;;;;;17.61;100.00;99136.06;5006553;28;45568;-72
2023/10/26 08:51:52;;;;;;;;;6.67;3.00;;;;;17.67;100.00;99122.97;5007820;28;45698;-71
2023/10/26 08:54:18;;;;;;;;;4.00;1.33;;;;;17.74;100.00;99122.59;5001351;28;46119;-71
2023/10/26 08:56:43;;;;;;;;;2.00;1.00;;;;;17.73;100.00;99132.88;5008932;28;45348;-71
2023/10/26 08:59:08;;;;;;;;;2.00;2.00;;;;;17.59;100.00;99098.66;5011455;28;45484;-70
2023/10/26 09:01:34;;;;;;;;;10.33;5.00;;;;;17.70;100.00;99133.47;5004409;28;45291;-72
2023/10/26 09:04:09;;;;;;;;;3.00;2.00;;;;;17.72;100.00;99142.31;5004190;28;45601;-72
2023/10/26 09:06:45;;;;;;;;;3.00;2.00;;;;;17.79;100.00;99139.19;4995018;28;45489;-72
2023/10/26 09:09:11;;;;;;;;;5.67;3.33;;;;;17.62;100.00;99109.19;5012865;28;45919;-72
2023/10/26 09:11:36;;;;;;;;;4.33;3.00;;;;;17.89;100.00;99138.22;4994965;28;46600;-69
2023/10/26 09:14:18;;;;;;;;;4.67;2.00;;;;;17.91;100.00;99134.06;5012470;28;45459;-69
2023/10/26 09:16:48;;;;;;;;;4.00;3.00;;;;;17.90;100.00;99126.84;4995596;28;45415;-68
2023/10/26 09:19:18;;;;;;;;;5.00;1.00;;;;;18.02;100.00;99139.47;5012577;28;45580;-68
2023/10/26 09:21:49;;;;;;;;;4.33;3.00;;;;;17.90;100.00;99139.91;5004845;28;45609;-70
2023/10/26 09:24:29;;;;;;;;;3.00;1.25;;;;;17.90;100.00;99171.22;4995099;28;48248;-70
2023/10/26 09:27:01;;;;;;;;;4.67;2.00;;;;;17.89;100.00;99177.91;4990050;28;45377;-71
2023/10/26 09:29:40;;;;;;;;;3.67;2.33;;;;;17.87;100.00;99165.44;4992992;28;45448;-69
2023/10/26 09:32:06;;;;;;;;;3.67;1.33;;;;;17.90;100.00;99165.69;5001997;28;46058;-68
2023/10/26 09:34:40;;;;;;;;;4.33;2.00;;;;;17.85;100.00;99160.19;4989453;28;45805;-70
2023/10/26 09:37:07;;;;;;;;;5.00;2.00;;;;;17.98;100.00;99158.69;5010741;28;45398;-69
2023/10/26 09:39:35;;;;;;;;;6.00;4.00;;;;;18.08;100.00;99168.78;5006135;28;45817;-70
2023/10/26 09:42:01;;;;;;;;;4.00;2.00;;;;;18.15;100.00;99177.59;4990724;28;46241;-70
2023/10/26 09:44:28;;;;;;;;;1.50;1.00;;;;;18.14;100.00;99164.81;4983072;28;46504;-69
2023/10/26 09:46:55;;;;;;;;;5.50;2.25;;;;;18.34;100.00;99185.94;4985992;28;45292;-70
2023/10/26 09:49:26;;;;;;;;;1.33;1.33;;;;;18.48;100.00;99186.00;4981246;28;45555;-67
2023/10/26 09:51:53;;;;;;;;;8.33;4.67;;;;;18.59;100.00;99179.16;4987037;28;45751;-68
2023/10/26 09:54:22;;;;;;;;;8.00;2.67;;;;;18.69;100.00;99175.41;4987084;28;45602;-69
2023/10/26 09:56:55;;;;;;;;;8.00;3.00;;;;;18.90;100.00;99164.00;4972761;28;45590;-67
2023/10/26 09:59:22;;;;;;;;;4.00;3.50;;;;;18.97;100.00;99143.03;4988625;28;45892;-69
2023/10/26 10:01:47;;;;;;;;;2.00;0.67;;;;;19.14;100.00;99136.91;4980877;28;45518;-70
2023/10/26 10:04:13;;;;;;;;;2.67;2.00;;;;;19.31;100.00;99141.88;4980624;28;45981;-68
2023/10/26 10:06:52;;;;;;;;;3.67;2.67;;;;;19.43;100.00;99135.00;4991025;28;45436;-68
2023/10/26 10:09:21;;;;;;;;;9.00;3.00;;;;;19.49;100.00;99129.03;4988662;28;45794;-69
2023/10/26 10:12:07;;;;;;;;;2.75;2.00;;;;;19.51;100.00;99137.88;4972610;28;45542;-70
2023/10/26 10:14:48;;;;;;;;;3.25;2.00;;;;;19.67;100.00;99137.56;4989533;28;47092;-71
2023/10/26 10:17:42;;;;;;;;;3.00;2.25;;;;;19.71;100.00;99136.63;4991069;28;45964;-70
2023/10/26 10:20:17;;;;;;;;;3.75;1.75;;;;;19.75;100.00;99134.06;4991033;28;45765;-73
2023/10/26 10:22:48;;;;;;;;;3.75;1.00;;;;;19.85;100.00;99141.41;4983735;28;45456;-70
2023/10/26 10:25:17;;;;;;;;;6.50;2.00;;;;;19.91;100.00;99159.63;4989134;28;45892;-71
2023/10/26 10:27:48;;;;;;;;;3.25;2.00;;;;;19.99;100.00;99156.13;4991489;28;45456;-69
2023/10/26 10:30:18;;;;;;;;;5.50;1.25;;;;;20.02;100.00;99160.25;4985855;28;45960;-72
2023/10/26 10:32:43;;;;;;;;;2.00;2.00;;;;;20.07;100.00;99157.34;4988831;28;45767;-70
2023/10/26 10:35:13;;;;;;;;;3.00;2.00;;;;;20.15;100.00;99164.16;4978118;28;45654;-71
2023/10/26 10:37:38;;;;;;;;;4.33;1.67;;;;;20.03;100.00;99151.59;4998375;28;45806;-71
2023/10/26 10:40:10;;;;;;;;;2.67;2.33;;;;;20.07;100.00;99169.31;4983296;28;45990;-69
2023/10/26 10:42:38;;;;;;;;;14.67;13.00;;;;;20.09;100.00;99174.59;4973165;28;45951;-71
2023/10/26 10:45:08;;;;;;;;;10.67;7.00;;;;;20.11;100.00;99163.97;4989506;28;46149;-71
2023/10/26 10:47:34;;;;;;;;;5.00;4.00;;;;;20.10;100.00;99163.16;4989814;28;45673;-70
2023/10/26 10:50:22;;;;;;;;;3.00;1.67;;;;;20.06;100.00;99167.69;4991027;28;45780;-71
2023/10/26 10:52:49;;;;;;;;;3.67;2.00;;;;;20.00;100.00;99170.88;4990261;28;45987;-70
2023/10/26 10:55:24;;;;;;;;;4.50;2.50;;;;;19.86;100.00;99163.34;4980404;28;45778;-71
2023/10/26 10:58:00;;;;;;;;;4.00;3.67;;;;;19.87;100.00;99166.97;4987803;28;45462;-71
2023/10/26 11:00:26;;;;;;;;;5.00;4.00;;;;;19.91;100.00;99157.69;4972207;28;45573;-71
2023/10/26 11:02:56;;;;;;;;;8.67;4.00;;;;;19.90;100.00;99164.38;4982937;28;45615;-73
2023/10/26 11:05:42;;;;;;;;;4.25;2.00;;;;;19.67;100.00;99127.28;4976746;28;45540;-70
2023/10/26 11:08:08;;;;;;;;;5.33;2.00;;;;;19.89;100.00;99157.16;4987985;28;46108;-71
2023/10/26 11:10:34;;;;;;;;;4.00;3.00;;;;;19.88;100.00;99149.97;4965961;28;45909;-71
2023/10/26 11:13:00;;;;;;;;;5.33;2.00;;;;;19.93;100.00;99160.16;4966499;28;46002;-71
2023/10/26 11:15:38;;;;;;;;;2.00;2.00;;;;;19.93;100.00;99154.59;4981202;28;46643;-70
2023/10/26 11:18:06;;;;;;;;;3.50;1.00;;;;;19.91;100.00;99154.91;4986823;28;45762;-70
2023/10/26 11:20:42;;;;;;;;;5.50;2.00;;;;;19.91;100.00;99143.78;4986829;28;45951;-70
2023/10/26 11:23:11;;;;;;;;;2.00;1.25;;;;;19.91;100.00;99143.78;4984719;28;45479;-69
2023/10/26 11:25:37;;;;;;;;;2.00;2.00;;;;;19.91;100.00;99129.88;4957465;28;47329;-70
2023/10/26 11:28:03;;;;;;;;;3.75;2.25;;;;;19.94;100.00;99145.13;4976374;28;45855;-70
2023/10/26 11:30:29;;;;;;;;;3.67;2.67;;;;;20.01;100.00;99142.72;4984008;28;45756;-70
2023/10/26 11:32:55;;;;;;;;;5.00;3.00;;;;;20.02;100.00;99138.00;4988657;28;45524;-70
2023/10/26 11:35:21;;;;;;;;;3.00;3.00;;;;;20.04;100.00;99144.88;4988456;28;46102;-71
2023/10/26 11:37:54;;;;;;;;;1.25;1.25;;;;;19.93;100.00;99130.38;4984229;28;45834;-69
2023/10/26 11:40:29;;;;;;;;;4.00;4.00;;;;;20.07;100.00;99123.97;4942123;28;1168732;-69
2023/10/26 11:43:00;;;;;;;;;2.67;2.00;;;;;20.10;100.00;99114.97;4977069;28;45838;-70
2023/10/26 11:45:27;;;;;;;;;5.33;3.00;;;;;20.17;100.00;99109.81;4987886;28;46195;-69
2023/10/26 11:47:57;;;;;;;;;4.33;3.00;;;;;20.27;100.00;99100.41;4987245;28;46361;-70
2023/10/26 11:50:26;;;;;;;;;4.25;2.50;;;;;20.37;100.00;99096.56;4972958;28;45431;-71
2023/10/26 11:52:53;;;;;;;;;2.67;2.00;;;;;20.41;100.00;99097.59;4988064;28;45442;-69
2023/10/26 11:55:20;;;;;;;;;4.67;3.00;;;;;20.34;100.00;99097.19;4987148;28;45575;-70
2023/10/26 11:57:46;;;;;;;;;3.67;2.33;;;;;20.29;100.00;99107.31;4992274;28;46213;-69
2023/10/26 12:00:14;;;;;;;;;3.00;2.75;;;;;20.37;100.00;99091.00;4991397;28;45887;-69
2023/10/26 12:02:40;;;;;;;;;1.00;1.00;;;;;20.47;100.00;99096.31;4993331;28;45578;-70
2023/10/26 12:05:07;;;;;;;;;3.00;1.00;;;;;20.72;100.00;99099.63;4982205;28;45452;-69
2023/10/26 12:07:36;;;;;;;;;4.25;4.00;;;;;20.80;100.00;99098.88;4992863;28;45375;-70
2023/10/26 12:10:03;;;;;;;;;2.33;2.33;;;;;20.80;100.00;99090.53;4993010;28;45812;-70
2023/10/26 12:12:28;;;;;;;;;1.50;1.50;;;;;20.61;100.00;99076.75;4975874;28;46265;-71
2023/10/26 12:14:54;;;;;;;;;4.50;2.75;;;;;20.60;100.00;99067.59;4974731;28;47348;-71
2023/10/26 12:17:19;;;;;;;;;2.75;2.25;;;;;20.70;100.00;99088.81;4986400;28;45918;-70
2023/10/26 12:19:45;;;;;;;;;4.00;3.00;;;;;20.58;100.00;99089.38;4992805;28;45476;-72
2023/10/26 12:22:10;;;;;;;;;5.00;2.00;;;;;20.51;100.00;99082.56;4990218;28;45604;-70
2023/10/26 12:24:36;;;;;;;;;3.67;2.00;;;;;20.50;100.00;99092.09;4990620;28;45500;-70
2023/10/26 12:27:02;;;;;;;;;5.75;2.50;;;;;20.54;100.00;99085.56;4961472;28;45851;-69
2023/10/26 12:29:27;;;;;;;;;7.00;2.25;;;;;20.55;100.00;99078.84;4992266;28;45520;-70
2023/10/26 12:31:53;;;;;;;;;3.00;1.67;;;;;20.54;100.00;99070.81;4985602;28;45449;-71
2023/10/26 12:34:19;;;;;;;;;3.00;2.50;;;;;20.53;100.00;99069.97;4992570;28;46652;-70
2023/10/26 12:36:47;;;;;;;;;5.00;2.00;;;;;20.51;100.00;99065.88;4992627;28;45827;-71